createdAt,value
2023-05-12T00:02:17.755Z,101903.34
2023-05-12T00:05:00.853Z,101907.38
2023-05-12T00:10:26.636Z,101904.09
2023-05-12T00:13:00.650Z,101906.25
2023-05-12T00:15:43.730Z,101899.06
2023-05-12T00:21:33.044Z,101913.34
2023-05-12T00:25:01.002Z,101918.06
2023-05-12T00:27:44.358Z,101911.25
2023-05-12T00:30:28.843Z,101916.66
2023-05-12T00:33:05.317Z,101917.00
2023-05-12T00:35:43.653Z,101926.41
2023-05-12T00:41:20.055Z,101923.69
2023-05-12T00:44:07.534Z,101922.88
2023-05-12T00:46:40.776Z,101914.69
2023-05-12T00:49:56.081Z,101917.69
2023-05-12T00:52:34.710Z,101925.44
2023-05-12T00:55:31.559Z,101930.16
2023-05-12T00:58:20.371Z,101935.50
2023-05-12T01:03:34.868Z,101936.53
2023-05-12T01:06:16.632Z,101932.84
2023-05-12T01:08:59.387Z,101929.00
2023-05-12T01:11:32.531Z,101927.50
2023-05-12T01:14:02.790Z,101925.63
2023-05-12T01:16:59.037Z,101926.31
2023-05-12T01:19:50.259Z,101930.50
2023-05-12T01:22:22.135Z,101928.50
2023-05-12T01:25:00.568Z,101934.53
2023-05-12T01:27:49.277Z,101939.56
2023-05-12T01:30:26.235Z,101927.16
2023-05-12T01:32:57.550Z,101916.44
2023-05-12T01:35:32.242Z,101919.09
2023-05-12T01:38:04.584Z,101909.19
2023-05-12T01:40:56.175Z,101918.78
2023-05-12T01:46:40.536Z,101913.75
2023-05-12T01:49:34.096Z,101903.34
2023-05-12T01:55:00.319Z,101914.75
2023-05-12T01:57:33.597Z,101913.41
2023-05-12T02:00:15.628Z,101929.84
2023-05-12T02:02:45.064Z,101916.44
2023-05-12T02:05:16.006Z,101927.84
2023-05-12T02:07:48.967Z,101931.19
2023-05-12T02:10:16.660Z,101922.97
2023-05-12T02:12:50.066Z,101940.91
2023-05-12T02:15:21.337Z,101942.25
2023-05-12T02:17:50.526Z,101938.38
2023-05-12T02:20:29.426Z,101945.28
2023-05-12T02:23:03.172Z,101942.59
2023-05-12T02:25:34.158Z,101951.47
2023-05-12T02:28:18.824Z,101950.31
2023-05-12T02:31:13.078Z,101951.81
2023-05-12T02:33:46.900Z,101943.94
2023-05-12T02:36:44.685Z,101940.75
2023-05-12T02:45:16.440Z,101944.75
2023-05-12T02:47:47.089Z,101942.75
2023-05-12T02:50:23.283Z,101952.00
2023-05-12T02:52:55.274Z,101954.00
2023-05-12T02:58:40.202Z,101957.16
2023-05-12T03:01:18.720Z,101961.38
2023-05-12T03:04:03.762Z,101968.09
2023-05-12T03:06:45.016Z,101959.84
2023-05-12T03:09:13.522Z,101955.34
2023-05-12T03:12:21.572Z,101954.00
2023-05-12T03:14:48.354Z,101956.50
2023-05-12T03:19:03.156Z,101947.78
2023-05-12T03:23:36.957Z,101943.28
2023-05-12T03:26:08.931Z,101918.78
2023-05-12T03:28:39.246Z,101936.19
2023-05-12T03:31:06.261Z,101951.13
2023-05-12T03:33:33.707Z,101938.25
2023-05-12T03:36:00.814Z,101956.34
2023-05-12T03:38:30.782Z,101956.16
2023-05-12T03:41:06.891Z,101956.34
2023-05-12T03:43:40.207Z,101968.09
2023-05-12T03:46:07.350Z,101962.88
2023-05-12T03:48:34.737Z,101968.38
2023-05-12T03:51:01.797Z,101967.72
2023-05-12T03:53:31.916Z,101972.25
2023-05-12T03:55:58.824Z,101966.03
2023-05-12T03:58:34.301Z,101956.31
2023-05-12T04:01:13.454Z,101966.03
2023-05-12T04:03:45.923Z,101972.41
2023-05-12T04:06:16.346Z,101968.72
2023-05-12T04:08:58.930Z,101964.22
2023-05-12T04:11:43.866Z,101969.72
2023-05-12T04:20:33.044Z,101963.41
2023-05-12T04:23:00.694Z,101968.44
2023-05-12T04:25:27.874Z,101964.75
2023-05-12T04:28:05.098Z,101967.91
2023-05-12T04:30:50.824Z,101967.09
2023-05-12T04:33:18.101Z,101983.66
2023-05-12T04:35:45.873Z,101978.81
2023-05-12T04:38:21.216Z,101984.00
2023-05-12T04:40:48.446Z,101990.72
2023-05-12T04:45:46.472Z,102005.47
2023-05-12T04:48:13.303Z,102013.19
2023-05-12T04:50:41.479Z,102015.38
2023-05-12T04:53:08.600Z,102018.56
2023-05-12T04:55:36.792Z,102024.63
2023-05-12T04:58:16.233Z,102036.19
2023-05-12T05:00:43.502Z,102032.34
2023-05-12T05:03:20.145Z,102043.75
2023-05-12T05:05:47.097Z,102052.28
2023-05-12T05:08:24.449Z,102061.00
2023-05-12T05:10:51.210Z,102069.06
2023-05-12T05:13:53.079Z,102077.47
2023-05-12T05:16:23.518Z,102096.25
2023-05-12T05:18:52.930Z,102099.97
2023-05-12T05:21:31.370Z,102101.44
2023-05-12T05:23:58.038Z,102109.50
2023-05-12T05:26:33.831Z,102113.72
2023-05-12T05:29:00.664Z,102108.34
2023-05-12T05:31:29.033Z,102123.78
2023-05-12T05:34:06.275Z,102139.22
2023-05-12T05:36:37.862Z,102134.84
2023-05-12T05:39:10.568Z,102132.34
2023-05-12T05:41:39.589Z,102132.81
2023-05-12T05:44:09.330Z,102153.63
2023-05-12T05:49:24.727Z,102175.31
2023-05-12T05:51:56.379Z,102181.03
2023-05-12T05:54:28.368Z,102202.34
2023-05-12T05:57:23.929Z,102213.88
2023-05-12T05:59:54.310Z,102219.41
2023-05-12T06:02:24.914Z,102234.03
2023-05-12T06:11:20.819Z,102271.09
2023-05-12T06:14:00.430Z,102278.13
2023-05-12T06:16:29.381Z,102287.88
2023-05-12T06:19:26.063Z,102295.97
2023-05-12T06:21:59.060Z,102315.06
2023-05-12T06:24:25.865Z,102323.59
2023-05-12T06:27:01.881Z,102317.25
2023-05-12T06:29:28.608Z,102332.19
2023-05-12T06:32:04.105Z,102341.22
2023-05-12T06:34:30.972Z,102345.97
2023-05-12T06:36:58.009Z,102356.69
2023-05-12T06:39:27.856Z,102369.44
2023-05-12T06:42:19.630Z,102371.06
2023-05-12T06:44:53.727Z,102389.53
2023-05-12T06:47:31.501Z,102389.09
2023-05-12T06:49:58.408Z,102415.94
2023-05-12T06:52:29.165Z,102410.75
2023-05-12T06:54:59.025Z,102416.09
2023-05-12T06:57:29.846Z,102422.03
2023-05-12T06:59:58.641Z,102430.69
2023-05-12T07:02:33.018Z,102424.13
2023-05-12T07:04:59.777Z,102436.97
2023-05-12T07:07:26.493Z,102442.81
2023-05-12T07:10:00.458Z,102441.81
2023-05-12T07:12:27.231Z,102444.88
2023-05-12T07:14:53.909Z,102445.72
2023-05-12T07:17:21.691Z,102419.00
2023-05-12T07:19:48.606Z,102426.16
2023-05-12T07:22:23.616Z,102428.50
2023-05-12T07:24:51.757Z,102429.00
2023-05-12T07:27:18.543Z,102420.59
2023-05-12T07:29:54.925Z,102421.91
2023-05-12T07:32:24.424Z,102416.97
2023-05-12T07:34:53.287Z,102415.75
2023-05-12T07:37:23.176Z,102402.53
2023-05-12T07:39:49.944Z,102412.00
2023-05-12T07:42:21.953Z,102403.34
2023-05-12T07:44:56.540Z,102410.50
2023-05-12T07:47:29.457Z,102419.22
2023-05-12T07:50:26.328Z,102420.44
2023-05-12T07:52:54.057Z,102414.63
2023-05-12T07:55:22.176Z,102400.97
2023-05-12T07:57:55.407Z,102425.16
2023-05-12T08:00:22.310Z,102411.03
2023-05-12T08:02:56.899Z,102389.38
2023-05-12T08:05:26.492Z,102375.97
2023-05-12T08:08:18.097Z,102373.75
2023-05-12T08:10:52.523Z,102365.13
2023-05-12T08:13:20.473Z,102368.00
2023-05-12T08:15:48.317Z,102366.34
2023-05-12T08:18:24.882Z,102368.00
2023-05-12T08:20:51.801Z,102347.50
2023-05-12T08:24:31.604Z,102348.44
2023-05-12T08:26:58.530Z,102353.34
2023-05-12T08:29:28.525Z,102359.31
2023-05-12T08:32:04.959Z,102340.53
2023-05-12T08:34:49.352Z,102336.63
2023-05-12T08:37:19.429Z,102323.81
2023-05-12T08:39:46.522Z,102320.31
2023-05-12T08:42:21.895Z,102306.09
2023-05-12T08:45:02.214Z,102313.44
2023-05-12T08:47:35.262Z,102309.69
2023-05-12T08:50:03.672Z,102296.28
2023-05-12T08:52:34.731Z,102273.53
2023-05-12T08:55:15.534Z,102278.69
2023-05-12T08:58:14.531Z,102267.22
2023-05-12T09:00:48.035Z,102260.00
2023-05-12T09:03:42.220Z,102287.75
2023-05-12T09:06:17.822Z,102243.91
2023-05-12T09:08:48.036Z,102233.00
2023-05-12T09:11:24.428Z,102200.22
2023-05-12T09:14:04.683Z,102198.00
2023-05-12T09:16:34.782Z,102194.06
2023-05-12T09:19:13.702Z,102176.41
2023-05-12T09:22:14.918Z,102157.31
2023-05-12T09:24:41.954Z,102157.56
2023-05-12T09:27:11.521Z,102144.59
2023-05-12T09:29:58.539Z,102144.88
2023-05-12T09:32:33.675Z,102153.19
2023-05-12T09:35:15.364Z,102125.53
2023-05-12T09:37:47.307Z,102106.66
2023-05-12T09:40:42.941Z,102078.38
2023-05-12T09:43:15.368Z,102060.59
2023-05-12T09:45:55.270Z,102041.84
2023-05-12T09:51:31.506Z,101999.19
2023-05-12T09:54:30.631Z,101964.50
2023-05-12T09:57:03.734Z,101966.88
2023-05-12T09:59:40.979Z,101943.44
2023-05-12T10:03:15.986Z,101925.22
2023-05-12T10:05:49.362Z,101907.94
2023-05-12T10:08:41.943Z,101903.88
2023-05-12T10:11:09.128Z,101900.72
2023-05-12T10:14:01.981Z,101870.09
2023-05-12T10:16:48.111Z,101860.41
2023-05-12T10:19:30.807Z,101873.69
2023-05-12T10:23:12.684Z,101854.16
2023-05-12T10:25:41.565Z,101849.28
2023-05-12T10:28:14.542Z,101834.44
2023-05-12T10:30:43.194Z,101799.72
2023-05-12T10:33:11.749Z,101782.41
2023-05-12T10:36:09.611Z,101766.56
2023-05-12T10:42:49.907Z,101657.03
2023-05-12T10:45:20.656Z,101650.53
2023-05-12T10:47:47.983Z,101630.19
2023-05-12T10:50:30.747Z,101600.94
2023-05-12T10:53:00.114Z,101570.53
2023-05-12T10:55:43.286Z,101524.94
2023-05-12T10:58:16.264Z,101501.34
2023-05-12T11:01:00.321Z,101479.66
2023-05-12T11:03:56.300Z,101130.81
2023-05-12T11:07:09.789Z,101093.91
2023-05-12T11:09:47.093Z,101072.19
2023-05-12T11:12:23.554Z,101060.44
2023-05-12T11:14:55.869Z,101008.47
2023-05-12T11:17:26.177Z,101023.72
2023-05-12T11:20:20.442Z,100970.34
2023-05-12T11:22:54.345Z,100945.50
2023-05-12T11:25:21.318Z,100967.09
2023-05-12T11:27:50.726Z,100936.44
2023-05-12T11:30:53.318Z,100914.28
2023-05-12T11:33:51.868Z,100915.13
2023-05-12T11:36:31.055Z,100913.13
2023-05-12T11:39:00.375Z,100847.25
2023-05-12T11:41:33.032Z,100823.41
2023-05-12T11:44:29.169Z,100795.53
2023-05-12T11:47:13.284Z,100767.66
2023-05-12T11:50:01.095Z,100712.22
2023-05-12T11:52:30.265Z,100645.13
2023-05-12T11:55:01.025Z,100577.31
2023-05-12T11:57:33.001Z,100537.41
2023-05-12T12:00:27.883Z,100383.16
2023-05-12T12:03:14.600Z,100047.06
2023-05-12T12:06:09.958Z,99924.47
2023-05-12T12:08:56.816Z,99810.81
2023-05-12T12:11:28.161Z,99788.72
2023-05-12T12:13:59.223Z,99787.63
2023-05-12T12:17:05.948Z,99800.91
2023-05-12T12:19:41.978Z,99801.44
2023-05-12T12:22:36.212Z,99833.00
2023-05-12T12:25:03.877Z,99795.69
2023-05-12T12:27:35.330Z,99770.47
2023-05-12T12:33:18.695Z,99864.56
2023-05-12T12:38:54.534Z,99987.69
2023-05-12T12:44:17.677Z,100073.94
2023-05-12T12:46:44.408Z,100127.56
2023-05-12T12:53:25.216Z,100174.31
2023-05-12T12:55:52.196Z,100171.09
2023-05-12T12:58:50.385Z,100211.88
2023-05-12T13:05:25.508Z,100258.69
2023-05-12T13:16:21.249Z,100319.34
2023-05-12T13:18:48.061Z,100328.59
2023-05-12T13:22:17.828Z,100356.34
2023-05-12T13:24:48.362Z,100328.06
2023-05-12T13:28:02.711Z,100345.66
2023-05-12T13:36:15.890Z,100342.81
2023-05-12T13:39:36.577Z,100337.59
2023-05-12T13:42:28.391Z,100354.56
2023-05-12T13:45:04.453Z,100380.19
2023-05-12T13:47:34.214Z,100398.09
2023-05-12T13:53:19.351Z,100384.41
2023-05-12T13:55:46.142Z,100399.97
2023-05-12T13:58:15.645Z,100397.00
2023-05-12T14:12:21.661Z,100404.44
2023-05-12T14:24:13.550Z,100388.84
2023-05-12T14:27:02.182Z,100385.56
2023-05-12T14:29:28.986Z,100422.03
2023-05-12T14:32:27.413Z,100433.47
2023-05-12T14:43:21.066Z,100452.97
2023-05-12T14:46:01.715Z,100457.56
2023-05-12T14:48:59.197Z,100448.94
2023-05-12T14:52:03.690Z,100468.66
2023-05-12T14:54:33.385Z,100478.13
2023-05-12T14:57:52.338Z,100472.63
2023-05-12T15:00:21.208Z,100453.41
2023-05-12T15:02:59.548Z,100441.13
2023-05-12T15:05:41.132Z,100458.53
2023-05-12T15:08:13.503Z,100473.00
2023-05-12T15:13:55.708Z,100479.00
2023-05-12T15:16:28.169Z,100475.72
2023-05-12T15:18:59.576Z,100477.28
2023-05-12T15:21:26.460Z,100453.06
2023-05-12T15:23:53.237Z,100473.47
2023-05-12T15:26:32.677Z,100487.63
2023-05-12T15:29:08.541Z,100488.47
2023-05-12T15:31:42.489Z,100488.22
2023-05-12T15:37:20.559Z,100502.22
2023-05-12T15:39:53.178Z,100514.25
2023-05-12T15:42:26.295Z,100512.63
2023-05-12T15:45:01.514Z,100514.28
2023-05-12T15:47:32.651Z,100507.75
2023-05-12T15:50:10.536Z,100515.13
2023-05-12T15:52:50.239Z,100508.03
2023-05-12T15:55:19.753Z,100524.34
2023-05-12T15:57:55.572Z,100531.44
2023-05-12T16:00:22.756Z,100528.41
2023-05-12T16:02:49.940Z,100528.44
2023-05-12T16:05:20.488Z,100539.09
2023-05-12T16:15:33.722Z,100543.09
2023-05-12T16:18:00.435Z,100541.22
2023-05-12T16:20:27.341Z,100539.28
2023-05-12T16:22:57.178Z,100543.66
2023-05-12T16:25:23.986Z,100552.03
2023-05-12T16:27:50.673Z,100549.91
2023-05-12T16:30:42.796Z,100544.09
2023-05-12T16:33:12.957Z,100534.63
2023-05-12T16:35:51.449Z,100519.09
2023-05-12T16:38:19.084Z,100551.44
2023-05-12T16:40:45.948Z,100549.50
2023-05-12T16:43:21.616Z,100544.00
2023-05-12T16:46:12.248Z,100556.47
2023-05-12T16:48:39.422Z,100550.53
2023-05-12T16:51:10.501Z,100551.91
2023-05-12T16:53:41.081Z,100553.47
2023-05-12T16:56:08.121Z,100545.06
2023-05-12T16:58:37.708Z,100549.38
2023-05-12T17:01:31.690Z,100547.13
2023-05-12T17:03:58.621Z,100552.00
2023-05-12T17:06:25.454Z,100550.56
2023-05-12T17:08:52.147Z,100551.34
2023-05-12T17:11:18.926Z,100543.66
2023-05-12T17:13:45.835Z,100548.34
2023-05-12T17:16:13.227Z,100544.50
2023-05-12T17:21:11.856Z,100552.81
2023-05-12T17:23:41.497Z,100548.34
2023-05-12T17:26:08.144Z,100534.06
2023-05-12T17:28:37.943Z,100536.09
2023-05-12T17:31:12.432Z,100547.50
2023-05-12T17:33:39.168Z,100556.53
2023-05-12T17:36:12.950Z,100556.94
2023-05-12T17:38:43.917Z,100542.66
2023-05-12T17:41:10.833Z,100547.28
2023-05-12T17:43:37.531Z,100549.41
2023-05-12T17:46:06.949Z,100538.50
2023-05-12T17:48:40.662Z,100546.25
2023-05-12T17:51:09.924Z,100543.00
2023-05-12T17:56:28.726Z,100536.97
2023-05-12T17:58:55.585Z,100538.91
2023-05-12T18:01:22.335Z,100519.31
2023-05-12T18:03:49.026Z,100505.75
2023-05-12T18:06:15.954Z,100513.47
2023-05-12T18:08:46.676Z,100512.41
2023-05-12T18:11:13.497Z,100493.63
2023-05-12T18:13:40.194Z,100496.34
2023-05-12T18:16:29.095Z,100501.47
2023-05-12T18:19:04.123Z,100494.13
2023-05-12T18:21:30.978Z,100493.13
2023-05-12T18:23:57.656Z,100493.66
2023-05-12T18:26:35.172Z,100492.72
2023-05-12T18:29:01.921Z,100504.38
2023-05-12T18:31:28.881Z,100476.66
2023-05-12T18:34:05.632Z,100456.13
2023-05-12T18:36:35.009Z,100455.09
2023-05-12T18:39:01.755Z,100453.22
2023-05-12T18:41:36.045Z,100429.25
2023-05-12T18:44:02.963Z,100417.97
2023-05-12T18:46:33.419Z,100396.19
2023-05-12T18:49:02.902Z,100382.81
2023-05-12T18:51:31.730Z,100365.63
2023-05-12T18:53:58.468Z,100349.78
2023-05-12T18:56:25.717Z,100333.25
2023-05-12T18:58:52.517Z,100313.41
2023-05-12T19:01:25.381Z,100293.94
2023-05-12T19:04:37.454Z,100268.53
2023-05-12T19:07:13.587Z,100276.88
2023-05-12T19:09:40.528Z,100277.19
2023-05-12T19:12:11.605Z,100280.88
2023-05-12T19:14:47.561Z,100279.38
2023-05-12T19:17:14.466Z,100287.66
2023-05-12T19:19:41.282Z,100288.19
2023-05-12T19:22:08.244Z,100282.25
2023-05-12T19:24:37.786Z,100286.44
2023-05-12T19:27:04.589Z,100279.69
2023-05-12T19:29:31.288Z,100274.88
2023-05-12T19:32:11.152Z,100281.09
2023-05-12T19:34:38.009Z,100278.50
2023-05-12T19:37:05.741Z,100274.69
2023-05-12T19:39:32.658Z,100264.06
2023-05-12T19:41:59.441Z,100251.97
2023-05-12T19:44:27.012Z,100240.94
2023-05-12T19:46:55.452Z,100233.63
2023-05-12T19:49:22.253Z,100235.34
2023-05-12T19:51:48.934Z,100227.72
2023-05-12T19:54:16.143Z,100224.72
2023-05-12T19:56:43.029Z,100227.84
2023-05-12T19:59:09.756Z,100239.81
2023-05-12T20:01:36.514Z,100244.44
2023-05-12T20:04:03.175Z,100249.06
2023-05-12T20:06:30.908Z,100252.34
2023-05-12T20:08:59.446Z,100252.97
2023-05-12T20:11:27.172Z,100256.31
2023-05-12T20:13:53.937Z,100253.53
2023-05-12T20:16:21.275Z,100266.66
2023-05-12T20:18:48.051Z,100274.16
2023-05-12T20:21:16.964Z,100268.34
2023-05-12T20:23:43.756Z,100270.88
2023-05-12T20:26:10.697Z,100266.81
2023-05-12T20:28:37.561Z,100264.81
2023-05-12T20:31:09.653Z,100269.06
2023-05-12T20:33:46.529Z,100281.31
2023-05-12T20:36:40.771Z,100283.38
2023-05-12T20:40:18.201Z,100281.56
2023-05-12T20:42:49.098Z,100280.06
2023-05-12T20:45:17.340Z,100275.75
2023-05-12T20:47:49.540Z,100280.91
2023-05-12T20:50:17.030Z,100272.84
2023-05-12T20:52:47.519Z,100275.34
2023-05-12T20:55:46.906Z,100270.97
2023-05-12T21:03:40.998Z,100284.31
2023-05-12T21:06:30.136Z,100302.38
2023-05-12T21:08:57.058Z,100309.94
2023-05-12T21:12:11.603Z,100312.47
2023-05-12T21:14:45.681Z,100312.75
2023-05-12T21:17:32.578Z,100312.59
2023-05-12T21:21:31.707Z,100311.94
2023-05-12T21:24:11.518Z,100330.41
2023-05-12T21:26:41.148Z,100341.00
2023-05-12T21:29:13.128Z,100342.63
2023-05-12T21:31:42.779Z,100355.34
2023-05-12T21:34:12.231Z,100363.19
2023-05-12T21:36:39.035Z,100372.38
2023-05-12T21:42:04.572Z,100382.78
2023-05-12T21:44:31.638Z,100391.28
2023-05-12T21:47:01.071Z,100387.56
2023-05-12T21:49:27.801Z,100390.69
2023-05-12T21:51:55.525Z,100388.84
2023-05-12T21:54:36.369Z,100390.09
2023-05-12T21:57:06.060Z,100400.44
2023-05-12T21:59:32.790Z,100409.50
2023-05-12T22:02:00.232Z,100406.84
2023-05-12T22:04:27.087Z,100409.53
2023-05-12T22:06:53.841Z,100424.78
2023-05-12T22:09:21.514Z,100428.28
2023-05-12T22:11:48.384Z,100442.69
2023-05-12T22:14:15.107Z,100463.53
2023-05-12T22:16:42.750Z,100475.97
2023-05-12T22:19:10.156Z,100492.91
2023-05-12T22:21:37.016Z,100493.94
2023-05-12T22:24:03.920Z,100498.50
2023-05-12T22:26:30.765Z,100497.25
2023-05-12T22:28:57.964Z,100506.34
2023-05-12T22:31:25.916Z,100513.16
2023-05-12T22:33:52.658Z,100513.59
2023-05-12T22:36:19.401Z,100509.44
2023-05-12T22:38:46.043Z,100522.66
2023-05-12T22:41:12.774Z,100524.31
2023-05-12T22:43:39.452Z,100530.94
2023-05-12T22:46:11.147Z,100533.81
2023-05-12T22:48:39.580Z,100537.34
2023-05-12T22:51:09.915Z,100537.94
2023-05-12T22:53:41.778Z,100542.50
2023-05-12T22:56:08.752Z,100547.47
2023-05-12T22:58:37.981Z,100539.38
2023-05-12T23:01:14.936Z,100535.03
2023-05-12T23:03:41.840Z,100530.69
2023-05-12T23:06:08.489Z,100536.09
2023-05-12T23:08:48.084Z,100532.97
2023-05-12T23:11:15.614Z,100534.59
2023-05-12T23:13:42.406Z,100532.13
2023-05-12T23:16:11.134Z,100523.22
2023-05-12T23:18:37.938Z,100521.38
2023-05-12T23:21:07.288Z,100517.41
2023-05-12T23:23:35.516Z,100520.50
2023-05-12T23:26:08.149Z,100510.59
2023-05-12T23:28:43.714Z,100507.03
2023-05-12T23:31:14.858Z,100515.06
2023-05-12T23:33:42.231Z,100497.94
2023-05-12T23:36:13.550Z,100506.16
2023-05-12T23:38:40.650Z,100497.72
2023-05-12T23:41:07.317Z,100499.59
2023-05-12T23:43:45.430Z,100494.59
2023-05-12T23:46:13.312Z,100490.84
2023-05-12T23:48:40.130Z,100486.50
2023-05-12T23:51:09.701Z,100485.66
2023-05-12T23:53:36.318Z,100478.25
2023-05-12T23:56:02.993Z,100479.03
2023-05-12T23:58:29.690Z,100470.56
